• Join FlightAware (Why Join?)
  • Login
  • US Flag 
11:13AM EST


 

Airport Tracker/Info


-or-


 

Live Flight TrackerFlight Track Log ✈ N6AR ✈ 27-Apr-2013 ✈ KMGY - KUCP

Flight Track Log - Related Links

Times and Time Zones

All times are in EDT time to prevent confusion due to time zone crossing. See the N6AR flight status page for this flight to view local times or setup timezone preferences in your user account.

Time Position Orientation Groundspeed Altitude Reporting Facility
EDT Latitude Longitude Course Direction KTS MPH feet Rate Location/Type
07:23PM 39.5672 -84.1922 55° Northeast 137 158 2,700  Level Indianapolis Center
07:23PM 39.5794 -84.1694 55° Northeast 150 173 3,200 720 Climbing Indianapolis Center
07:25PM 39.6064 -84.1142 58° Northeast 145 167 4,100 840 Climbing Indianapolis Center
07:25PM 39.6292 -84.0731 54° Northeast 153 176 5,000 960 Climbing Indianapolis Center
07:27PM 39.6497 -84.0214 63° Northeast 146 168 6,000 840 Climbing Indianapolis Center
07:28PM 39.6661 -83.9747 65° Northeast 145 167 6,900 480 Climbing Indianapolis Center
07:29PM 39.6911 -83.9211 59° Northeast 173 199 7,000  Climbing Indianapolis Center
07:30PM 39.7167 -83.8650 59° Northeast 171 197 7,000  Level Indianapolis Center
07:30PM 39.7367 -83.8183 61° Northeast 182 209 7,000  Level Indianapolis Center
07:31PM 39.7408 -83.8075 63° Northeast 178 205 7,000 -120 Level Indianapolis Center
07:32PM 39.7642 -83.7567 59° Northeast 182 209 6,900 -120 Descending Indianapolis Center
07:32PM 39.7658 -83.7506 70° East 179 206 6,900 60 Level Indianapolis Center
07:33PM 39.7922 -83.6914 60° Northeast 183 211 7,000  Climbing Indianapolis Center
07:34PM 39.8131 -83.6381 63° Northeast 189 217 7,000  Level Indianapolis Center
07:34PM 39.8164 -83.6322 53° Northeast 184 212 7,000  Level Indianapolis Center
07:34PM 39.8378 -83.5839 60° Northeast 200 230 7,000  Level Indianapolis Center
07:35PM 39.8419 -83.5711 67° East 188 216 7,000  Level Indianapolis Center
07:36PM 39.8675 -83.5225 56° Northeast 187 215 7,000  Level Indianapolis Center
07:36PM 39.8719 -83.5133 58° Northeast 188 216 7,000  Level Indianapolis Center
07:36PM 39.8922 -83.4683 60° Northeast 190 219 7,000  Level Indianapolis Center
07:37PM 39.8997 -83.4519 59° Northeast 189 217 7,000  Level Indianapolis Center
07:38PM 39.9156 -83.4086 65° Northeast 186 214 7,000  Level Indianapolis Center
07:38PM 39.9233 -83.3900 61° Northeast 188 216 7,000  Level Indianapolis Center
07:39PM 39.9386 -83.3489 64° Northeast 182 209 7,000  Level Indianapolis Center
07:39PM 39.9478 -83.3333 52° Northeast 183 211 7,000 -120 Level Indianapolis Center
07:39PM 39.9633 -83.2975 60° Northeast 182 209 6,900  Descending Indianapolis Center
07:40PM 39.9736 -83.2761 58° Northeast 181 208 7,000 60 Climbing Indianapolis Center
07:40PM 39.9881 -83.2433 60° Northeast 176 203 7,000 -120 Level Indianapolis Center
07:41PM 39.9989 -83.2219 57° Northeast 176 203 6,900 -120 Descending Indianapolis Center
07:42PM 40.0153 -83.1811 62° Northeast 176 203 6,900 60 Level Indianapolis Center
07:42PM 40.0233 -83.1653 56° Northeast 176 203 7,000 120 Climbing Indianapolis Center
07:42PM 40.0331 -83.1369 66° East 172 198 7,000 -120 Level Indianapolis Center
07:43PM 40.0436 -83.1075 65° Northeast 175 201 6,900 60 Descending Indianapolis Center
07:43PM 40.0517 -83.0792 70° East 174 200 7,100  Climbing Indianapolis Center
07:44PM 40.0631 -83.0494 63° Northeast 174 200 6,900 -120 Descending Indianapolis Center
07:44PM 40.0742 -83.0247 60° Northeast 174 200 7,000 60 Climbing Indianapolis Center
07:45PM 40.0883 -82.9931 60° Northeast 176 203 7,000 -120 Level Indianapolis Center
07:45PM 40.1039 -82.9600 58° Northeast 178 205 6,900  Descending Indianapolis Center
07:46PM 40.1147 -82.9372 58° Northeast 179 206 7,000 60 Climbing Indianapolis Center
07:46PM 40.1306 -82.9058 57° Northeast 178 205 7,000  Level Indianapolis Center
07:47PM 40.1422 -82.8836 56° Northeast 178 205 7,000  Level Indianapolis Center
07:47PM 40.1528 -82.8536 65° Northeast 180 207 7,000  Level Indianapolis Center
07:48PM 40.1642 -82.8247 63° Northeast 179 206 7,000  Level Indianapolis Center
07:48PM 40.1756 -82.7964 62° Northeast 180 207 7,000  Level Indianapolis Center
07:49PM 40.1897 -82.7669 58° Northeast 181 208 7,000 -120 Level Indianapolis Center
07:49PM 40.2044 -82.7394 55° Northeast 184 212 6,900  Descending Indianapolis Center
07:50PM 40.2178 -82.7111 58° Northeast 183 211 7,000 60 Climbing Indianapolis Center
07:50PM 40.2289 -82.6850 61° Northeast 181 208 7,000  Level Indianapolis Center
07:51PM 40.2403 -82.6519 66° East 180 207 7,000  Level Indianapolis Center
07:51PM 40.2494 -82.6244 66° East 181 208 7,000 -120 Level Indianapolis Center
07:52PM 40.2633 -82.5936 59° Northeast 181 208 6,900  Descending Indianapolis Center
07:52PM 40.2742 -82.5642 64° Northeast 185 213 7,000 60 Climbing Indianapolis Center
07:53PM 40.2908 -82.5231 62° Northeast 185 213 7,000  Level Indianapolis Center
07:53PM 40.2989 -82.5069 57° Northeast 185 213 7,000  Level Indianapolis Center
07:54PM 40.3153 -82.4642 63° Northeast 184 212 7,000  Level Indianapolis Center
07:54PM 40.3261 -82.4414 58° Northeast 186 214 7,000  Level Indianapolis Center
07:55PM 40.3408 -82.4036 63° Northeast 187 215 7,000  Level Indianapolis Center
07:56PM 40.3686 -82.3442 58° Northeast 190 219 7,000  Level Indianapolis Center
07:57PM 40.3953 -82.2847 59° Northeast 188 216 7,000  Level Indianapolis Center
07:58PM 40.4203 -82.2222 62° Northeast 190 219 7,000  Level Indianapolis Center
07:59PM 40.4458 -82.1619 61° Northeast 188 216 7,000  Level Indianapolis Center
08:00PM 40.4694 -82.0992 64° Northeast 190 219 7,000  Level Indianapolis Center
08:01PM 40.4936 -82.0419 61° Northeast 182 209 7,000  Level Indianapolis Center
08:02PM 40.5169 -81.9853 62° Northeast 176 203 7,000 -60 Level Indianapolis Center
08:03PM 40.5419 -81.9278 60° Northeast 179 206 6,900  Descending Indianapolis Center
08:04PM 40.5647 -81.8703 62° Northeast 178 205 7,000  Climbing Indianapolis Center
08:05PM 40.5908 -81.8144 58° Northeast 179 206 6,900 -60 Descending Indianapolis Center
08:06PM 40.6161 -81.7564 60° Northeast 181 208 6,900  Level Indianapolis Center
08:07PM 40.6383 -81.6961 64° Northeast 181 208 7,000  Climbing Indianapolis Center
08:08PM 40.6617 -81.6386 62° Northeast 179 206 7,000  Level Indianapolis Center
08:09PM 40.6858 -81.5783 62° Northeast 184 212 7,000 -60 Level Indianapolis Center
08:10PM 40.7078 -81.5161 65° Northeast 187 215 6,900  Descending Indianapolis Center
08:11PM 40.7322 -81.4558 62° Northeast 187 215 7,000  Climbing Indianapolis Center
08:12PM 40.7528 -81.3944 66° East 185 213 7,000  Level Indianapolis Center
08:13PM 40.7692 -81.3303 71° East 185 213 7,000  Level Indianapolis Center
08:14PM 40.7875 -81.2683 69° East 182 209 7,000  Level Indianapolis Center